createdAt,value
2019-02-11T00:00:00.066Z,986.32
2019-02-11T00:01:00.086Z,986.41
2019-02-11T00:02:00.077Z,986.38
2019-02-11T00:03:00.071Z,986.40
2019-02-11T00:04:00.140Z,986.37
2019-02-11T00:05:00.093Z,986.32
2019-02-11T00:06:00.123Z,986.36
2019-02-11T00:07:00.093Z,986.35
2019-02-11T00:08:00.092Z,986.33
2019-02-11T00:09:00.126Z,986.35
2019-02-11T00:10:00.268Z,986.40
2019-02-11T00:11:00.122Z,986.40
2019-02-11T00:12:00.110Z,986.34
2019-02-11T00:13:00.121Z,986.41
2019-02-11T00:14:00.151Z,986.44
2019-02-11T00:15:00.265Z,986.47
2019-02-11T00:16:00.199Z,986.45
2019-02-11T00:17:00.154Z,986.52
2019-02-11T00:18:00.166Z,986.53
2019-02-11T00:19:00.142Z,986.56
2019-02-11T00:20:00.273Z,986.55
2019-02-11T00:21:00.170Z,986.62
2019-02-11T00:22:00.315Z,986.61
2019-02-11T00:23:00.174Z,986.62
2019-02-11T00:24:00.182Z,986.59
2019-02-11T00:25:00.224Z,986.64
2019-02-11T00:26:00.186Z,986.70
2019-02-11T00:27:00.196Z,986.77
2019-02-11T00:28:00.209Z,986.79
2019-02-11T00:29:00.189Z,986.75
2019-02-11T00:30:00.358Z,986.84
2019-02-11T00:31:00.222Z,986.79
2019-02-11T00:32:00.222Z,986.82
2019-02-11T00:33:00.346Z,986.91
2019-02-11T00:34:00.273Z,986.93
2019-02-11T00:35:00.241Z,986.87
2019-02-11T00:36:00.238Z,986.91
2019-02-11T00:37:00.243Z,986.93
2019-02-11T00:38:00.298Z,986.95
2019-02-11T00:39:00.250Z,986.96
2019-02-11T00:40:00.363Z,986.97
2019-02-11T00:41:00.279Z,986.98
2019-02-11T00:42:00.257Z,986.94
2019-02-11T00:43:00.266Z,987.03
2019-02-11T00:44:00.296Z,986.99
2019-02-11T00:45:00.393Z,987.04
2019-02-11T00:46:00.284Z,987.05
2019-02-11T00:47:00.278Z,987.03
2019-02-11T00:48:00.323Z,987.12
2019-02-11T00:49:00.307Z,987.11
2019-02-11T00:50:00.361Z,987.11
2019-02-11T00:51:00.310Z,987.22
2019-02-11T00:52:00.308Z,987.11
2019-02-11T00:53:00.311Z,987.11
2019-02-11T00:54:00.337Z,987.20
2019-02-11T00:55:00.377Z,987.14
2019-02-11T00:56:00.331Z,987.21
2019-02-11T00:57:00.342Z,987.19
2019-02-11T00:58:00.351Z,987.16
2019-02-11T00:59:00.340Z,987.21
2019-02-11T01:00:00.509Z,987.21
2019-02-11T01:01:00.341Z,987.28
2019-02-11T01:02:00.381Z,987.27
2019-02-11T01:03:00.369Z,987.29
2019-02-11T01:04:00.373Z,987.17
2019-02-11T01:05:00.372Z,987.30
2019-02-11T01:06:00.392Z,987.37
2019-02-11T01:07:00.393Z,987.36
2019-02-11T01:08:00.378Z,987.41
2019-02-11T01:09:00.393Z,987.53
2019-02-11T01:10:00.402Z,987.47
2019-02-11T01:11:00.434Z,987.47
2019-02-11T01:12:00.405Z,987.46
2019-02-11T01:13:00.407Z,987.48
2019-02-11T01:14:00.412Z,987.57
2019-02-11T01:15:00.416Z,987.55
2019-02-11T01:16:00.458Z,987.58
2019-02-11T01:17:00.438Z,987.54
2019-02-11T01:18:00.438Z,987.59
2019-02-11T01:19:00.440Z,987.69
2019-02-11T01:20:00.478Z,987.64
2019-02-11T01:21:00.464Z,987.63
2019-02-11T01:22:00.475Z,987.68
2019-02-11T01:23:00.466Z,987.60
2019-02-11T01:24:00.451Z,987.66
2019-02-11T01:25:00.455Z,987.66
2019-02-11T01:26:00.469Z,987.70
2019-02-11T01:27:00.494Z,987.63
2019-02-11T01:28:00.488Z,987.67
2019-02-11T01:29:00.503Z,987.67
2019-02-11T01:30:00.510Z,987.71
2019-02-11T01:31:00.486Z,987.74
2019-02-11T01:32:00.490Z,987.78
2019-02-11T01:33:00.514Z,987.75
2019-02-11T01:34:00.535Z,987.77
2019-02-11T01:35:00.531Z,987.78
2019-02-11T01:36:00.509Z,987.74
2019-02-11T01:37:00.520Z,987.82
2019-02-11T01:38:00.562Z,987.83
2019-02-11T01:39:00.546Z,987.85
2019-02-11T01:40:00.528Z,987.93
2019-02-11T01:41:00.556Z,987.91
2019-02-11T01:42:00.556Z,987.99
2019-02-11T01:43:00.534Z,987.99
2019-02-11T01:44:00.561Z,988.11
2019-02-11T01:45:00.540Z,988.13
2019-02-11T01:46:00.554Z,988.07
2019-02-11T01:47:00.561Z,988.19
2019-02-11T01:48:00.589Z,988.25
2019-02-11T01:49:00.617Z,988.22
2019-02-11T01:50:00.570Z,988.27
2019-02-11T01:51:00.573Z,988.27
2019-02-11T01:52:00.596Z,988.29
2019-02-11T01:53:00.588Z,988.33
2019-02-11T01:54:00.577Z,988.31
2019-02-11T01:55:00.629Z,988.32
2019-02-11T01:56:00.589Z,988.36
2019-02-11T01:57:00.632Z,988.22
2019-02-11T01:58:00.603Z,988.31
2019-02-11T01:59:00.614Z,988.31
2019-02-11T02:00:00.626Z,988.31
2019-02-11T02:01:00.642Z,988.38
2019-02-11T02:02:00.624Z,988.39
2019-02-11T02:03:00.627Z,988.47
2019-02-11T02:04:00.635Z,988.47
2019-02-11T02:05:00.660Z,988.44
2019-02-11T02:06:00.626Z,988.48
2019-02-11T02:07:00.631Z,988.43
2019-02-11T02:08:00.658Z,988.45
2019-02-11T02:09:00.645Z,988.53
2019-02-11T02:10:00.658Z,988.50
2019-02-11T02:11:00.670Z,988.52
2019-02-11T02:12:00.653Z,988.57
2019-02-11T02:13:00.703Z,988.59
2019-02-11T02:14:00.676Z,988.57
2019-02-11T02:15:00.668Z,988.62
2019-02-11T02:16:00.727Z,988.55
2019-02-11T02:17:00.691Z,988.59
2019-02-11T02:18:00.676Z,988.60
2019-02-11T02:19:00.678Z,988.60
2019-02-11T02:20:00.716Z,988.61
2019-02-11T02:21:00.711Z,988.58
2019-02-11T02:22:00.734Z,988.70
2019-02-11T02:23:00.700Z,988.67
2019-02-11T02:24:00.714Z,988.69
2019-02-11T02:25:00.706Z,988.69
2019-02-11T02:26:00.714Z,988.71
2019-02-11T02:27:00.789Z,988.89
2019-02-11T02:28:00.730Z,988.81
2019-02-11T02:29:00.735Z,988.76
2019-02-11T02:30:00.723Z,988.86
2019-02-11T02:31:00.744Z,988.90
2019-02-11T02:32:00.774Z,988.93
2019-02-11T02:33:00.750Z,989.11
2019-02-11T02:34:00.789Z,989.06
2019-02-11T02:35:00.817Z,989.05
2019-02-11T02:36:00.753Z,989.06
2019-02-11T02:37:00.807Z,989.16
2019-02-11T02:38:00.757Z,989.17
2019-02-11T02:39:00.762Z,989.21
2019-02-11T02:40:00.790Z,989.18
2019-02-11T02:41:00.789Z,989.21
2019-02-11T02:42:00.776Z,989.28
2019-02-11T02:43:00.811Z,989.27
2019-02-11T02:44:00.800Z,989.32
2019-02-11T02:45:00.799Z,989.29
2019-02-11T02:46:00.798Z,989.43
2019-02-11T02:47:00.805Z,989.50
2019-02-11T02:48:00.849Z,989.43
2019-02-11T02:49:00.792Z,989.57
2019-02-11T02:50:00.811Z,989.60
2019-02-11T02:51:00.830Z,989.50
2019-02-11T02:52:00.821Z,989.51
2019-02-11T02:53:00.827Z,989.57
2019-02-11T02:54:00.849Z,989.59
2019-02-11T02:55:00.849Z,989.59
2019-02-11T02:56:00.845Z,989.64
2019-02-11T02:57:00.860Z,989.73
2019-02-11T02:58:00.837Z,989.82
2019-02-11T02:59:00.939Z,989.84
2019-02-11T03:00:00.847Z,989.79
2019-02-11T03:01:00.842Z,989.87
2019-02-11T03:02:00.860Z,989.87
2019-02-11T03:03:00.851Z,989.90
2019-02-11T03:04:00.882Z,989.94
2019-02-11T03:05:00.938Z,989.98
2019-02-11T03:06:00.865Z,989.90
2019-02-11T03:07:00.871Z,990.03
2019-02-11T03:08:00.865Z,990.03
2019-02-11T03:09:00.879Z,990.04
2019-02-11T03:10:00.876Z,990.12
2019-02-11T03:11:00.894Z,990.22
2019-02-11T03:12:00.890Z,990.17
2019-02-11T03:13:00.908Z,990.16
2019-02-11T03:14:05.926Z,990.23
2019-02-11T03:15:00.915Z,990.21
2019-02-11T03:16:00.917Z,990.36
2019-02-11T03:17:00.920Z,990.28
2019-02-11T03:18:01.024Z,990.27
2019-02-11T03:19:00.908Z,990.36
2019-02-11T03:20:00.915Z,990.39
2019-02-11T03:21:00.932Z,990.52
2019-02-11T03:22:00.922Z,990.51
2019-02-11T03:23:00.950Z,990.56
2019-02-11T03:24:00.937Z,990.58
2019-02-11T03:25:00.912Z,990.70
2019-02-11T03:26:00.980Z,990.65
2019-02-11T03:27:00.922Z,990.72
2019-02-11T03:28:00.966Z,990.76
2019-02-11T03:29:00.921Z,990.89
2019-02-11T03:30:00.948Z,990.81
2019-02-11T03:31:00.966Z,990.89
2019-02-11T03:32:00.951Z,990.93
2019-02-11T03:33:00.962Z,990.97
2019-02-11T03:34:00.976Z,991.02
2019-02-11T03:35:00.983Z,990.97
2019-02-11T03:36:00.965Z,991.13
2019-02-11T03:37:00.980Z,991.11
2019-02-11T03:38:00.992Z,991.11
2019-02-11T03:39:00.952Z,991.23
2019-02-11T03:40:00.991Z,991.25
2019-02-11T03:41:00.971Z,991.21
2019-02-11T03:42:00.968Z,991.26
2019-02-11T03:43:00.980Z,991.25
2019-02-11T03:44:01.012Z,991.42
2019-02-11T03:45:01.008Z,991.37
2019-02-11T03:46:01.023Z,991.40
2019-02-11T03:47:01.001Z,991.47
2019-02-11T03:48:01.023Z,991.47
2019-02-11T03:49:00.997Z,991.52
2019-02-11T03:50:00.997Z,991.57
2019-02-11T03:51:01.004Z,991.55
2019-02-11T03:52:01.020Z,991.52
2019-02-11T03:53:01.045Z,991.50
2019-02-11T03:54:01.060Z,991.62
2019-02-11T03:55:01.048Z,991.66
2019-02-11T03:56:01.020Z,991.66
2019-02-11T03:57:01.037Z,991.75
2019-02-11T03:58:01.028Z,991.77
2019-02-11T03:59:01.069Z,991.81
2019-02-11T04:00:01.034Z,991.81
2019-02-11T04:01:01.068Z,991.90
2019-02-11T04:02:01.032Z,991.84
2019-02-11T04:03:01.079Z,991.95
2019-02-11T04:04:01.046Z,991.96
2019-02-11T04:05:01.075Z,991.96
2019-02-11T04:06:01.049Z,992.00
2019-02-11T04:07:01.049Z,991.98
2019-02-11T04:08:01.058Z,992.07
2019-02-11T04:09:01.081Z,992.17
2019-02-11T04:10:01.086Z,992.21
2019-02-11T04:11:01.100Z,992.18
2019-02-11T04:12:01.087Z,992.30
2019-02-11T04:13:01.108Z,992.32
2019-02-11T04:14:01.077Z,992.22
2019-02-11T04:15:01.093Z,992.33
2019-02-11T04:16:01.097Z,992.35
2019-02-11T04:17:01.091Z,992.38
2019-02-11T04:18:01.093Z,992.37
2019-02-11T04:19:01.103Z,992.47
2019-02-11T04:20:01.089Z,992.36
2019-02-11T04:21:01.173Z,992.55
2019-02-11T04:22:01.097Z,992.52
2019-02-11T04:23:01.137Z,992.50
2019-02-11T04:24:01.117Z,992.56
2019-02-11T04:25:01.099Z,992.55
2019-02-11T04:26:01.144Z,992.67
2019-02-11T04:27:01.183Z,992.62
2019-02-11T04:28:01.141Z,992.65
2019-02-11T04:29:01.117Z,992.73
2019-02-11T04:30:01.129Z,992.71
2019-02-11T04:31:01.124Z,992.69
2019-02-11T04:32:01.187Z,992.70
2019-02-11T04:33:01.146Z,992.83
2019-02-11T04:34:01.150Z,992.86
2019-02-11T04:35:01.131Z,993.00
2019-02-11T04:36:01.130Z,992.91
2019-02-11T04:37:01.160Z,992.97
2019-02-11T04:38:01.163Z,992.95
2019-02-11T04:39:01.164Z,992.97
2019-02-11T04:40:01.180Z,992.98
2019-02-11T04:41:01.164Z,993.04
2019-02-11T04:42:01.180Z,993.07
2019-02-11T04:43:01.169Z,993.04
2019-02-11T04:44:01.196Z,993.10
2019-02-11T04:45:01.200Z,993.15
2019-02-11T04:46:01.160Z,993.28
2019-02-11T04:47:01.193Z,993.13
2019-02-11T04:48:01.225Z,993.19
2019-02-11T04:49:01.174Z,993.25
2019-02-11T04:50:01.192Z,993.23
2019-02-11T04:51:01.221Z,993.27
2019-02-11T04:52:01.203Z,993.26
2019-02-11T04:53:01.214Z,993.27
2019-02-11T04:54:01.228Z,993.31
2019-02-11T04:55:01.217Z,993.35
2019-02-11T04:56:01.234Z,993.42
2019-02-11T04:57:01.199Z,993.45
2019-02-11T04:58:01.271Z,993.46
2019-02-11T04:59:01.250Z,993.47
2019-02-11T05:00:01.261Z,993.55
2019-02-11T05:01:01.229Z,993.47
2019-02-11T05:02:01.220Z,993.53
2019-02-11T05:03:01.245Z,993.56
2019-02-11T05:04:01.282Z,993.54
2019-02-11T05:05:01.252Z,993.58
2019-02-11T05:06:01.272Z,993.57
2019-02-11T05:07:01.244Z,993.64
2019-02-11T05:08:01.267Z,993.62
2019-02-11T05:09:01.262Z,993.63
2019-02-11T05:10:01.291Z,993.71
2019-02-11T05:11:01.268Z,993.73
2019-02-11T05:12:01.325Z,993.76
2019-02-11T05:13:01.259Z,993.72
2019-02-11T05:14:01.261Z,993.84
2019-02-11T05:15:01.297Z,993.79
2019-02-11T05:16:01.279Z,993.78
2019-02-11T05:17:01.356Z,993.84
2019-02-11T05:18:01.291Z,993.76
2019-02-11T05:19:01.302Z,994.03
2019-02-11T05:20:01.351Z,993.96
2019-02-11T05:21:01.297Z,993.91
2019-02-11T05:22:01.306Z,993.99
2019-02-11T05:23:01.296Z,993.99
2019-02-11T05:24:01.297Z,993.96
2019-02-11T05:25:01.337Z,993.94
2019-02-11T05:26:01.345Z,994.10
2019-02-11T05:27:01.307Z,994.02
2019-02-11T05:28:01.315Z,994.08
2019-02-11T05:29:01.307Z,994.12
2019-02-11T05:30:01.354Z,994.13
2019-02-11T05:31:01.345Z,994.25
2019-02-11T05:32:01.361Z,994.26
2019-02-11T05:33:01.365Z,994.29
2019-02-11T05:34:01.334Z,994.27
2019-02-11T05:35:01.351Z,994.40
2019-02-11T05:36:01.367Z,994.36
2019-02-11T05:37:01.394Z,994.42
2019-02-11T05:38:01.353Z,994.45
2019-02-11T05:39:01.358Z,994.48
2019-02-11T05:40:01.366Z,994.42
2019-02-11T05:41:01.380Z,994.42
2019-02-11T05:42:01.394Z,994.51
2019-02-11T05:43:01.391Z,994.49
2019-02-11T05:44:01.380Z,994.49
2019-02-11T05:45:01.364Z,994.61
2019-02-11T05:46:01.369Z,994.57
2019-02-11T05:47:01.459Z,994.59
2019-02-11T05:48:01.397Z,994.59
2019-02-11T05:49:01.416Z,994.59
2019-02-11T05:50:01.449Z,994.76
2019-02-11T05:51:01.435Z,994.71
2019-02-11T05:52:01.452Z,994.66
2019-02-11T05:53:01.411Z,994.67
2019-02-11T05:54:01.415Z,994.66
2019-02-11T05:55:01.438Z,994.70
2019-02-11T05:56:01.431Z,994.73
2019-02-11T05:57:01.423Z,994.70
2019-02-11T05:58:01.466Z,994.77
2019-02-11T05:59:01.419Z,994.78
2019-02-11T06:00:01.452Z,994.80
2019-02-11T06:01:01.455Z,994.82
2019-02-11T06:02:01.424Z,994.91
2019-02-11T06:03:01.462Z,994.96
2019-02-11T06:04:01.466Z,994.88
2019-02-11T06:05:01.464Z,994.99
2019-02-11T06:06:01.472Z,995.03
2019-02-11T06:07:01.499Z,995.07
2019-02-11T06:08:01.504Z,994.98
2019-02-11T06:09:01.496Z,995.06
2019-02-11T06:10:01.542Z,995.10
2019-02-11T06:11:01.492Z,995.18
2019-02-11T06:12:01.479Z,995.09
2019-02-11T06:13:01.482Z,995.15
2019-02-11T06:14:01.519Z,995.22
2019-02-11T06:15:04.383Z,995.27
2019-02-11T06:16:01.533Z,995.26
2019-02-11T06:17:01.484Z,995.29
2019-02-11T06:18:01.524Z,995.29
2019-02-11T06:19:01.595Z,995.37
2019-02-11T06:20:01.521Z,995.30
2019-02-11T06:21:01.524Z,995.31
2019-02-11T06:22:01.508Z,995.42
2019-02-11T06:23:01.520Z,995.46
2019-02-11T06:24:01.620Z,995.41
2019-02-11T06:25:01.550Z,995.50
2019-02-11T06:26:01.615Z,995.52
2019-02-11T06:27:01.573Z,995.60
2019-02-11T06:28:01.516Z,995.61
2019-02-11T06:29:01.538Z,995.62
2019-02-11T06:30:01.598Z,995.62
2019-02-11T06:31:01.555Z,995.67
2019-02-11T06:32:01.566Z,995.68
2019-02-11T06:33:01.580Z,995.71
2019-02-11T06:34:01.539Z,995.70
2019-02-11T06:35:01.555Z,995.70
2019-02-11T06:36:01.620Z,995.72
2019-02-11T06:37:01.552Z,995.81
2019-02-11T06:38:01.612Z,995.74
2019-02-11T06:39:01.574Z,995.79
2019-02-11T06:40:01.599Z,995.91
2019-02-11T06:41:01.623Z,995.85
2019-02-11T06:42:01.658Z,995.94
2019-02-11T06:43:01.626Z,995.95
2019-02-11T06:44:02.150Z,995.98
2019-02-11T06:45:01.734Z,995.92
2019-02-11T06:46:01.840Z,995.95
2019-02-11T06:47:01.610Z,995.99
2019-02-11T06:48:01.630Z,996.01
2019-02-11T06:49:01.612Z,996.07
2019-02-11T06:50:01.958Z,996.07
2019-02-11T06:51:01.636Z,996.16
2019-02-11T06:52:01.913Z,996.11
2019-02-11T06:53:01.678Z,996.13
2019-02-11T06:54:01.643Z,996.26
2019-02-11T06:55:01.692Z,996.17
2019-02-11T06:56:01.738Z,996.26
2019-02-11T06:57:01.698Z,996.27
2019-02-11T06:58:01.662Z,996.23
2019-02-11T06:59:01.666Z,996.35
2019-02-11T07:00:01.693Z,996.31
2019-02-11T07:01:01.683Z,996.38
2019-02-11T07:02:01.661Z,996.45
2019-02-11T07:03:01.715Z,996.39
2019-02-11T07:04:01.681Z,996.39
2019-02-11T07:05:01.659Z,996.33
2019-02-11T07:06:01.717Z,996.38
2019-02-11T07:07:01.852Z,996.51
2019-02-11T07:08:01.685Z,996.39
2019-02-11T07:09:01.754Z,996.51
2019-02-11T07:10:01.704Z,996.59
2019-02-11T07:11:01.719Z,996.54
2019-02-11T07:12:01.764Z,996.59
2019-02-11T07:13:01.760Z,996.68
2019-02-11T07:14:01.714Z,996.61
2019-02-11T07:15:01.715Z,996.62
2019-02-11T07:16:01.727Z,996.71
2019-02-11T07:17:01.725Z,996.64
2019-02-11T07:18:01.744Z,996.80
2019-02-11T07:19:01.757Z,996.85
2019-02-11T07:20:01.776Z,996.74
2019-02-11T07:21:01.753Z,996.86
2019-02-11T07:22:01.744Z,996.86
2019-02-11T07:23:01.738Z,996.91
2019-02-11T07:24:01.748Z,996.93
2019-02-11T07:25:01.762Z,996.89
2019-02-11T07:26:01.844Z,996.99
2019-02-11T07:27:01.758Z,996.97
2019-02-11T07:28:01.762Z,996.92
2019-02-11T07:29:01.794Z,996.95
2019-02-11T07:30:01.780Z,997.02
2019-02-11T07:31:01.793Z,996.97
2019-02-11T07:32:01.796Z,997.00
2019-02-11T07:33:01.833Z,997.06
2019-02-11T07:34:01.780Z,997.05
2019-02-11T07:35:01.791Z,997.13
2019-02-11T07:36:01.831Z,997.03
2019-02-11T07:37:01.834Z,997.17
2019-02-11T07:38:01.807Z,997.12
2019-02-11T07:39:01.805Z,997.18
2019-02-11T07:40:01.826Z,997.18
2019-02-11T07:41:01.817Z,997.27
2019-02-11T07:42:01.854Z,997.29
2019-02-11T07:43:01.821Z,997.32
2019-02-11T07:44:01.828Z,997.35
2019-02-11T07:45:01.864Z,997.39
2019-02-11T07:46:01.838Z,997.39
2019-02-11T07:47:01.912Z,997.43
2019-02-11T07:48:01.871Z,997.37
2019-02-11T07:49:01.848Z,997.51
2019-02-11T07:50:01.862Z,997.60
2019-02-11T07:51:01.890Z,997.53
2019-02-11T07:52:01.899Z,997.54
2019-02-11T07:53:01.858Z,997.58
2019-02-11T07:54:01.869Z,997.56
2019-02-11T07:55:01.886Z,997.64
2019-02-11T07:56:01.906Z,997.66
2019-02-11T07:57:01.925Z,997.61
2019-02-11T07:58:01.892Z,997.63
2019-02-11T07:59:01.920Z,997.67
2019-02-11T08:00:01.885Z,997.75
2019-02-11T08:01:01.951Z,997.66
2019-02-11T08:02:01.927Z,997.86
2019-02-11T08:03:01.921Z,997.85
2019-02-11T08:04:01.915Z,997.84
2019-02-11T08:05:01.910Z,997.84
2019-02-11T08:06:01.908Z,997.85
2019-02-11T08:07:01.945Z,997.80
2019-02-11T08:08:01.945Z,997.89
2019-02-11T08:09:01.929Z,997.90
2019-02-11T08:10:01.943Z,997.84
2019-02-11T16:58:06.761Z,1009.50
2019-02-11T16:59:06.748Z,1009.56
2019-02-11T17:00:06.793Z,1009.59
2019-02-11T17:01:06.747Z,1009.52
2019-02-11T17:02:06.757Z,1009.51
2019-02-11T17:03:06.782Z,1009.57
2019-02-11T17:04:06.794Z,1009.52
2019-02-11T17:05:08.271Z,1009.52
2019-02-11T17:06:06.797Z,1009.58
2019-02-11T17:07:06.770Z,1009.74
2019-02-11T17:08:06.784Z,1009.70
2019-02-11T17:09:06.789Z,1009.64
2019-02-11T17:10:06.837Z,1009.72
2019-02-11T17:11:06.820Z,1009.65
2019-02-11T17:12:06.775Z,1009.76
2019-02-11T17:13:06.801Z,1009.70
2019-02-11T17:14:06.794Z,1009.67
2019-02-11T17:15:06.790Z,1009.74
2019-02-11T17:16:06.829Z,1009.81
2019-02-11T17:17:06.965Z,1009.89
2019-02-11T17:18:06.788Z,1009.92
2019-02-11T17:19:09.408Z,1009.96
2019-02-11T17:20:06.841Z,1009.94
2019-02-11T17:21:06.840Z,1010.04
2019-02-11T17:22:07.128Z,1010.05
2019-02-11T17:23:06.827Z,1010.03
2019-02-11T17:24:06.825Z,1010.07
2019-02-11T17:25:06.832Z,1010.04
2019-02-11T17:26:06.840Z,1010.01
2019-02-11T17:27:06.871Z,1010.11
2019-02-11T17:28:06.983Z,1010.06
2019-02-11T17:29:06.926Z,1010.26
2019-02-11T17:30:06.860Z,1010.36
2019-02-11T17:31:06.855Z,1010.16
2019-02-11T17:32:06.858Z,1010.19
2019-02-11T17:33:06.921Z,1010.16
2019-02-11T17:34:07.008Z,1010.18
2019-02-11T17:35:06.861Z,1010.21
2019-02-11T17:36:06.922Z,1010.21
2019-02-11T17:37:06.866Z,1010.21
2019-02-11T17:38:06.867Z,1010.27
2019-02-11T17:39:06.907Z,1010.23
2019-02-11T17:40:06.863Z,1010.34
2019-02-11T17:41:06.876Z,1010.38
2019-02-11T17:42:06.921Z,1010.40
2019-02-11T17:43:06.934Z,1010.39
2019-02-11T17:44:06.878Z,1010.38
2019-02-11T17:45:06.876Z,1010.38
2019-02-11T17:46:06.933Z,1010.35
2019-02-11T17:47:06.886Z,1010.48
2019-02-11T17:48:06.895Z,1010.53
2019-02-11T17:49:06.917Z,1010.66
2019-02-11T17:50:07.115Z,1010.68
2019-02-11T17:51:06.902Z,1010.61
2019-02-11T17:52:07.184Z,1010.67
2019-02-11T17:53:07.068Z,1010.65
2019-02-11T17:54:06.981Z,1010.75
2019-02-11T17:55:07.153Z,1010.77
2019-02-11T17:56:07.142Z,1010.94
2019-02-11T17:57:06.957Z,1011.01
2019-02-11T17:58:06.946Z,1010.81
2019-02-11T17:59:06.951Z,1010.81
2019-02-11T18:00:07.265Z,1010.91
2019-02-11T18:01:07.009Z,1010.83
2019-02-11T18:02:07.168Z,1011.09
2019-02-11T18:03:06.981Z,1010.85
2019-02-11T18:04:07.061Z,1010.90
2019-02-11T18:05:07.003Z,1010.79
2019-02-11T18:06:07.005Z,1010.87
2019-02-11T18:07:06.991Z,1011.02
2019-02-11T18:08:07.226Z,1010.92
2019-02-11T18:09:07.147Z,1010.94
2019-02-11T18:10:06.996Z,1010.96
2019-02-11T18:11:06.980Z,1011.02
2019-02-11T18:12:07.013Z,1010.97
2019-02-11T18:13:06.985Z,1011.10
2019-02-11T18:14:06.965Z,1011.13
2019-02-11T18:15:07.004Z,1011.03
2019-02-11T18:16:07.015Z,1011.13
2019-02-11T18:17:06.991Z,1011.29
2019-02-11T18:18:07.001Z,1011.24
2019-02-11T18:19:06.982Z,1011.44
2019-02-11T18:20:06.980Z,1011.30
2019-02-11T18:21:07.014Z,1011.32
2019-02-11T18:22:07.012Z,1011.38
2019-02-11T18:23:07.034Z,1011.34
2019-02-11T18:24:07.027Z,1011.49
2019-02-11T18:25:06.995Z,1011.44
2019-02-11T18:26:07.073Z,1011.49
2019-02-11T18:27:07.043Z,1011.49
2019-02-11T18:28:07.011Z,1011.53
2019-02-11T18:29:07.028Z,1011.64
2019-02-11T18:30:07.055Z,1011.80
2019-02-11T18:31:07.018Z,1011.61
2019-02-11T18:32:07.120Z,1011.76
2019-02-11T18:33:07.077Z,1011.67
2019-02-11T18:34:07.074Z,1011.73
2019-02-11T18:35:07.031Z,1011.66
2019-02-11T18:36:07.040Z,1011.74
2019-02-11T18:37:07.077Z,1011.76
2019-02-11T18:38:07.065Z,1011.76
2019-02-11T18:39:07.055Z,1011.77
2019-02-11T18:40:07.074Z,1011.83
2019-02-11T18:41:07.075Z,1011.87
2019-02-11T18:42:07.061Z,1011.84
2019-02-11T18:43:07.109Z,1011.97
2019-02-11T18:44:07.073Z,1011.96
2019-02-11T18:45:07.075Z,1012.01
2019-02-11T18:46:07.078Z,1012.08
2019-02-11T18:47:07.091Z,1012.02
2019-02-11T18:48:07.118Z,1012.07
2019-02-11T18:49:07.111Z,1012.10
2019-02-11T18:50:07.091Z,1012.09
2019-02-11T18:51:08.720Z,1012.15
2019-02-11T18:52:07.094Z,1012.11
2019-02-11T18:53:07.141Z,1012.06
2019-02-11T18:54:07.113Z,1012.12
2019-02-11T18:55:07.117Z,1012.12
2019-02-11T18:56:07.100Z,1012.21
2019-02-11T18:57:07.112Z,1012.20
2019-02-11T18:58:07.099Z,1012.24
2019-02-11T18:59:07.102Z,1012.25
2019-02-11T19:00:07.131Z,1012.28
2019-02-11T19:01:07.116Z,1012.28
2019-02-11T19:02:07.158Z,1012.33
2019-02-11T19:03:07.117Z,1012.31
2019-02-11T19:04:07.226Z,1012.29
2019-02-11T19:05:07.160Z,1012.35
2019-02-11T19:06:07.147Z,1012.31
2019-02-11T19:07:07.134Z,1012.29
2019-02-11T19:08:07.132Z,1012.43
2019-02-11T19:09:07.151Z,1012.40
2019-02-11T19:10:07.160Z,1012.35
2019-02-11T19:11:07.203Z,1012.33
2019-02-11T19:12:07.169Z,1012.43
2019-02-11T19:13:07.605Z,1012.39
2019-02-11T19:14:07.171Z,1012.46
2019-02-11T19:15:07.149Z,1012.46
2019-02-11T19:16:07.190Z,1012.52
2019-02-11T19:17:07.179Z,1012.47
2019-02-11T19:18:07.170Z,1012.55
2019-02-11T19:19:07.179Z,1012.53
2019-02-11T19:20:07.171Z,1012.57
2019-02-11T19:21:07.168Z,1012.56
2019-02-11T19:22:07.198Z,1012.57
2019-02-11T19:23:07.186Z,1012.62
2019-02-11T19:24:07.217Z,1012.61
2019-02-11T19:25:07.169Z,1012.61
2019-02-11T19:26:07.204Z,1012.56
2019-02-11T19:27:07.345Z,1012.62
2019-02-11T19:28:07.212Z,1012.62
2019-02-11T19:29:07.186Z,1012.70
2019-02-11T19:30:07.196Z,1012.65
2019-02-11T19:31:07.233Z,1012.70
2019-02-11T19:32:07.200Z,1012.74
2019-02-11T19:33:07.216Z,1012.75
2019-02-11T19:34:07.303Z,1012.82
2019-02-11T19:35:07.241Z,1012.85
2019-02-11T19:36:07.221Z,1012.81
2019-02-11T19:37:07.209Z,1012.88
2019-02-11T19:38:07.239Z,1012.94
2019-02-11T19:39:07.228Z,1012.94
2019-02-11T19:40:07.233Z,1012.92
2019-02-11T19:41:07.257Z,1012.95
2019-02-11T19:42:07.256Z,1012.96
2019-02-11T19:43:07.286Z,1012.94
2019-02-11T19:44:07.249Z,1012.93
2019-02-11T19:45:07.246Z,1012.95
2019-02-11T19:46:07.266Z,1012.94
2019-02-11T19:47:07.234Z,1013.03
2019-02-11T19:48:07.235Z,1013.02
2019-02-11T19:49:07.292Z,1013.11
2019-02-11T19:50:07.238Z,1013.05
2019-02-11T19:51:07.319Z,1013.06
2019-02-11T19:52:07.317Z,1013.08
2019-02-11T19:53:07.322Z,1013.11
2019-02-11T19:54:07.436Z,1013.13
2019-02-11T19:55:07.258Z,1013.13
2019-02-11T19:56:07.278Z,1013.17
2019-02-11T19:57:07.285Z,1013.21
2019-02-11T19:58:07.339Z,1013.23
2019-02-11T19:59:07.306Z,1013.26
2019-02-11T20:00:07.322Z,1013.23
2019-02-11T20:01:07.277Z,1013.25
2019-02-11T20:02:07.352Z,1013.28
2019-02-11T20:03:07.289Z,1013.34
2019-02-11T20:04:08.026Z,1013.26
2019-02-11T20:05:07.325Z,1013.39
2019-02-11T20:06:07.347Z,1013.38
2019-02-11T20:07:07.308Z,1013.37
2019-02-11T20:08:07.338Z,1013.36
2019-02-11T20:09:07.337Z,1013.45
2019-02-11T20:10:07.313Z,1013.45
2019-02-11T20:11:07.320Z,1013.53
2019-02-11T20:12:07.348Z,1013.40
2019-02-11T20:13:07.389Z,1013.44
2019-02-11T20:14:07.348Z,1013.48
2019-02-11T20:15:07.362Z,1013.51
2019-02-11T20:16:07.428Z,1013.53
2019-02-11T20:17:07.379Z,1013.48
2019-02-11T20:18:07.404Z,1013.45
2019-02-11T20:19:07.346Z,1013.44
2019-02-11T20:20:07.388Z,1013.47
2019-02-11T20:21:07.353Z,1013.50
2019-02-11T20:22:07.419Z,1013.55
2019-02-11T20:23:07.430Z,1013.47
2019-02-11T20:24:07.534Z,1013.58
2019-02-11T20:25:07.359Z,1013.55
2019-02-11T20:26:07.384Z,1013.52
2019-02-11T20:27:07.528Z,1013.58
2019-02-11T20:28:07.460Z,1013.63
2019-02-11T20:29:07.386Z,1013.56
2019-02-11T20:30:07.388Z,1013.55
2019-02-11T20:31:07.408Z,1013.59
2019-02-11T20:32:07.393Z,1013.63
2019-02-11T20:33:07.391Z,1013.67
2019-02-11T20:34:07.365Z,1013.69
2019-02-11T20:35:07.424Z,1013.67
2019-02-11T20:36:07.668Z,1013.68
2019-02-11T20:37:07.399Z,1013.66
2019-02-11T20:38:07.400Z,1013.65
2019-02-11T20:39:07.402Z,1013.68
2019-02-11T20:40:07.433Z,1013.75
2019-02-11T20:41:07.426Z,1013.74
2019-02-11T20:42:07.474Z,1013.84
2019-02-11T20:43:07.423Z,1013.73
2019-02-11T20:44:07.413Z,1013.74
2019-02-11T20:45:07.427Z,1013.79
2019-02-11T20:46:07.424Z,1013.81
2019-02-11T20:47:07.439Z,1013.82
2019-02-11T20:48:07.457Z,1013.82
2019-02-11T20:49:07.429Z,1013.85
2019-02-11T20:50:09.352Z,1013.74
2019-02-11T20:51:07.453Z,1013.85
2019-02-11T20:52:07.535Z,1013.88
2019-02-11T20:53:07.457Z,1013.89
2019-02-11T20:54:07.477Z,1013.93
2019-02-11T20:55:07.450Z,1013.92
2019-02-11T20:56:07.430Z,1013.86
2019-02-11T20:57:07.720Z,1013.91
2019-02-11T20:58:07.503Z,1013.95
2019-02-11T20:59:07.530Z,1013.95
2019-02-11T21:00:07.494Z,1013.93
2019-02-11T21:01:07.478Z,1013.92
2019-02-11T21:02:07.492Z,1013.94
2019-02-11T21:03:08.636Z,1013.93
2019-02-11T21:04:07.486Z,1013.94
2019-02-11T21:05:07.514Z,1013.94
2019-02-11T21:06:07.472Z,1013.95
2019-02-11T21:07:07.477Z,1013.96